EZY514 LSZH-LSZB
Flight info
| Callsign | EZY514 |
|---|---|
| Flight time | N/A |
| Altitude | 9000 |
| Route | VEBIT T544 WIL Z601 ROTOS |
| Aircraft | A319/M-SDE3FGHIRWY/LB1 |
Departure
| Time | 2026-05-06 15:53 |
|---|---|
| Airport | Zürich Airport (LSZH) |
Arrival
| Time | N/A |
|---|---|
| Airport | Bern Airport (LSZB) |
| Time | Latitude | Longitude | Altitude | Speed | Heading |
|---|---|---|---|---|---|
| 2026-05-06 15:40 | 47.45422 | 8.55803 | 1407 ft | 0 kts | 186° |
| 2026-05-06 15:46 | 47.45432 | 8.55804 | 1415 ft | 3 kts | 186° |
| 2026-05-06 15:46 | 47.45449 | 8.55807 | 1409 ft | 3 kts | 186° |
| 2026-05-06 15:46 | 47.45466 | 8.55810 | 1410 ft | 2 kts | 186° |
| 2026-05-06 15:47 | 47.45482 | 8.55813 | 1412 ft | 2 kts | 173° |
| 2026-05-06 15:47 | 47.45498 | 8.55806 | 1407 ft | 2 kts | 134° |
| 2026-05-06 15:47 | 47.45506 | 8.55791 | 1413 ft | 0 kts | 103° |
| 2026-05-06 15:48 | 47.45500 | 8.55880 | 1409 ft | 16 kts | 95° |
| 2026-05-06 15:48 | 47.45499 | 8.55894 | 1407 ft | 0 kts | 95° |
| 2026-05-06 15:49 | 47.45499 | 8.55904 | 1407 ft | 9 kts | 95° |
| 2026-05-06 15:49 | 47.45483 | 8.56125 | 1407 ft | 21 kts | 95° |
| 2026-05-06 15:49 | 47.45517 | 8.56287 | 1411 ft | 13 kts | 51° |
| 2026-05-06 15:49 | 47.45556 | 8.56356 | 1413 ft | 6 kts | 50° |
| 2026-05-06 15:50 | 47.45574 | 8.56387 | 1419 ft | 2 kts | 49° |
| 2026-05-06 15:50 | 47.45583 | 8.56402 | 1414 ft | 5 kts | 50° |
| 2026-05-06 15:50 | 47.45589 | 8.56572 | 1419 ft | 24 kts | 96° |
| 2026-05-06 15:50 | 47.45573 | 8.56764 | 1421 ft | 16 kts | 97° |
| 2026-05-06 15:51 | 47.45566 | 8.56900 | 1420 ft | 11 kts | 98° |
| 2026-05-06 15:51 | 47.45579 | 8.56997 | 1422 ft | 0 kts | 51° |
| 2026-05-06 15:51 | 47.45581 | 8.57000 | 1422 ft | 5 kts | 51° |
| 2026-05-06 15:51 | 47.45665 | 8.57001 | 1425 ft | 14 kts | 307° |
| 2026-05-06 15:52 | 47.45670 | 8.56889 | 1423 ft | 0 kts | 276° |
| 2026-05-06 15:52 | 47.45670 | 8.56887 | 1423 ft | 2 kts | 276° |
| 2026-05-06 15:52 | 47.45698 | 8.56503 | 1416 ft | 83 kts | 276° |
| 2026-05-06 15:53 | 47.45755 | 8.55751 | 1409 ft | 138 kts | 277° |
| 2026-05-06 15:53 | 47.45942 | 8.53508 | 1960 ft | 180 kts | 274° |
| 2026-05-06 15:53 | 47.46080 | 8.51536 | 2722 ft | 205 kts | 274° |
| 2026-05-06 15:53 | 47.46220 | 8.49318 | 3420 ft | 229 kts | 271° |
| 2026-05-06 15:54 | 47.45856 | 8.46965 | 4170 ft | 245 kts | 241° |
| 2026-05-06 15:54 | 47.44857 | 8.44897 | 5263 ft | 249 kts | 231° |
| 2026-05-06 15:54 | 47.43712 | 8.42960 | 6411 ft | 252 kts | 229° |
| 2026-05-06 15:54 | 47.42544 | 8.41013 | 7446 ft | 255 kts | 229° |
| 2026-05-06 15:55 | 47.41379 | 8.39000 | 8386 ft | 261 kts | 230° |
| 2026-05-06 15:55 | 47.40224 | 8.36921 | 8746 ft | 262 kts | 232° |
| 2026-05-06 15:55 | 47.39097 | 8.34808 | 8867 ft | 261 kts | 233° |
| 2026-05-06 15:55 | 47.38201 | 8.32478 | 8892 ft | 262 kts | 243° |
| 2026-05-06 15:56 | 47.37383 | 8.30084 | 8891 ft | 261 kts | 242° |
| 2026-05-06 15:56 | 47.36542 | 8.27713 | 8890 ft | 261 kts | 242° |
| 2026-05-06 15:56 | 47.35691 | 8.25343 | 8892 ft | 262 kts | 241° |
| 2026-05-06 15:56 | 47.34840 | 8.22975 | 8894 ft | 262 kts | 242° |
| 2026-05-06 15:57 | 47.33990 | 8.20600 | 8898 ft | 262 kts | 242° |
| 2026-05-06 15:57 | 47.33141 | 8.18218 | 8906 ft | 262 kts | 242° |
| 2026-05-06 15:57 | 47.32582 | 8.16647 | 8902 ft | 262 kts | 242° |
| 2026-05-06 15:57 | 47.31732 | 8.14270 | 8904 ft | 263 kts | 242° |
| 2026-05-06 15:58 | 47.30881 | 8.11886 | 8905 ft | 263 kts | 242° |
| 2026-05-06 15:58 | 47.30029 | 8.09499 | 8909 ft | 263 kts | 242° |
| 2026-05-06 15:58 | 47.29177 | 8.07117 | 8909 ft | 263 kts | 242° |
| 2026-05-06 15:58 | 47.28328 | 8.04737 | 8905 ft | 263 kts | 242° |
| 2026-05-06 15:59 | 47.27202 | 8.01579 | 8905 ft | 263 kts | 242° |
| 2026-05-06 15:59 | 47.26446 | 7.99129 | 8903 ft | 263 kts | 247° |
| 2026-05-06 15:59 | 47.25760 | 7.96630 | 8900 ft | 263 kts | 247° |
| 2026-05-06 15:59 | 47.25066 | 7.94136 | 8900 ft | 263 kts | 246° |
| 2026-05-06 16:00 | 47.24367 | 7.91644 | 8901 ft | 264 kts | 246° |
| 2026-05-06 16:00 | 47.23905 | 7.89996 | 8902 ft | 264 kts | 246° |
| 2026-05-06 16:00 | 47.23667 | 7.89151 | 8906 ft | 264 kts | 246° |
| 2026-05-06 16:00 | 47.23396 | 7.88186 | 8904 ft | 264 kts | 246° |
| 2026-05-06 16:01 | 47.22699 | 7.85690 | 8903 ft | 264 kts | 247° |
| 2026-05-06 16:01 | 47.22000 | 7.83199 | 8908 ft | 263 kts | 246° |
| 2026-05-06 16:01 | 47.21298 | 7.80710 | 8914 ft | 264 kts | 246° |
| 2026-05-06 16:01 | 47.20594 | 7.78221 | 8913 ft | 263 kts | 246° |
| 2026-05-06 16:02 | 47.19890 | 7.75733 | 8913 ft | 263 kts | 246° |
| 2026-05-06 16:02 | 47.19188 | 7.73246 | 8917 ft | 264 kts | 246° |
| 2026-05-06 16:02 | 47.18326 | 7.70869 | 8915 ft | 264 kts | 239° |
| 2026-05-06 16:02 | 47.17391 | 7.68551 | 8919 ft | 264 kts | 239° |
| 2026-05-06 16:03 | 47.16458 | 7.66235 | 8922 ft | 263 kts | 239° |
| 2026-05-06 16:03 | 47.15530 | 7.63933 | 8676 ft | 261 kts | 239° |
| 2026-05-06 16:03 | 47.14607 | 7.61644 | 8244 ft | 260 kts | 239° |
| 2026-05-06 16:03 | 47.13665 | 7.59305 | 7348 ft | 274 kts | 240° |
| 2026-05-06 16:04 | 47.12700 | 7.56802 | 6367 ft | 289 kts | 246° |
| 2026-05-06 16:04 | 47.12096 | 7.53915 | 5270 ft | 303 kts | 257° |
| 2026-05-06 16:04 | 47.11621 | 7.50848 | 4363 ft | 310 kts | 257° |
| 2026-05-06 16:04 | 47.11150 | 7.47831 | 4058 ft | 294 kts | 256° |
| 2026-05-06 16:05 | 47.10715 | 7.45052 | 3925 ft | 266 kts | 256° |
| 2026-05-06 16:05 | 47.10321 | 7.42558 | 3918 ft | 236 kts | 256° |
| 2026-05-06 16:05 | 47.09972 | 7.40351 | 3915 ft | 209 kts | 256° |
| 2026-05-06 16:05 | 47.09639 | 7.38396 | 3924 ft | 185 kts | 250° |
| 2026-05-06 16:06 | 47.09067 | 7.36864 | 3932 ft | 162 kts | 234° |
| 2026-05-06 16:06 | 47.08291 | 7.35746 | 3925 ft | 154 kts | 220° |
| 2026-05-06 16:06 | 47.07375 | 7.34935 | 3929 ft | 154 kts | 214° |
| 2026-05-06 16:06 | 47.06431 | 7.34200 | 3925 ft | 156 kts | 206° |
| 2026-05-06 16:07 | 47.05356 | 7.33918 | 3921 ft | 160 kts | 185° |
| 2026-05-06 16:07 | 47.04259 | 7.34250 | 3919 ft | 166 kts | 164° |
| 2026-05-06 16:07 | 47.03281 | 7.35194 | 3916 ft | 171 kts | 145° |
| 2026-05-06 16:07 | 47.02372 | 7.36322 | 3891 ft | 171 kts | 147° |
| 2026-05-06 16:08 | 47.01461 | 7.37435 | 3897 ft | 171 kts | 147° |
| 2026-05-06 16:08 | 47.00546 | 7.38553 | 3890 ft | 171 kts | 146° |
| 2026-05-06 16:08 | 46.99649 | 7.39709 | 3816 ft | 173 kts | 143° |
| 2026-05-06 16:08 | 46.98790 | 7.40930 | 3642 ft | 171 kts | 142° |
| 2026-05-06 16:09 | 46.97933 | 7.42105 | 3355 ft | 170 kts | 145° |
| 2026-05-06 16:09 | 46.96966 | 7.43088 | 2915 ft | 169 kts | 152° |
| 2026-05-06 16:09 | 46.96034 | 7.44128 | 2522 ft | 168 kts | 143° |
| 2026-05-06 16:09 | 46.95131 | 7.45221 | 2276 ft | 170 kts | 142° |
| 2026-05-06 16:10 | 46.94208 | 7.46307 | 2110 ft | 171 kts | 143° |
| 2026-05-06 16:10 | 46.93300 | 7.47434 | 1968 ft | 172 kts | 141° |
| 2026-05-06 16:10 | 46.92381 | 7.48546 | 1767 ft | 171 kts | 140° |
| 2026-05-06 16:10 | 46.91469 | 7.49645 | 1689 ft | 165 kts | 141° |